MMBT 090040Z 00000KT 8SM FEW030 SCT220 27/23 A2988 RMK 8/102 HZY= 090041

MMBT 082354Z 00000KT 8SM FEW030 BKN220 29/24 A2987 RMK 8/102 HZY= 082355

MMBT 082240Z 00000KT 8SM FEW030 BKN220 31/24 A2984 RMK 8/102 HZY= 082240

MMBT 082149Z 18006KT 8SM FEW030 BKN220 32/24 A2984 RMK 8/101 HZY= 082150

MMBT 082040Z 18010KT 8SM FEW030 SCT220 32/24 A2984 RMK 8/109 HZY= 082042

MMBT 081940Z 18006KT 8SM FEW030 SCT220 32/24 A2987 RMK 8/109 HZY= 081941

MMBT 081840Z 18008KT 8SM SKC 32/23 A2990 RMK HZY= 081841

MMBT 081740Z 00000KT 8SM SKC 32/21 A2993 RMK HZY= 081740

MMBT 081640Z 00000KT 8SM SKC 31/21 A2995= 081641

MMBT 081542Z 00000KT 8SM SKC 30/21 A2996 RMK HZY= 081543

MMBT 081445Z 00000KT 8SM SKC 27/21 A2996 RMK HZY= 081445

MMBT 081340Z 00000KT 8SM SKC 25/19 A2993 RMK HZY= 081340

MMBT 081248Z 00000KT 8SM SKC 24/19 A2992 RMK HZY RTS= 081249

MMBT 080040Z 00000KT 7SM FEW020 SCT080 27/23 A2986 RMK 8/130 HZY= 080043

MMBT 072341Z 00000KT 7SM FEW020 SCT080 28/24 A2985 RMK 8/130 HZY CU N= 072342

MMBT 072240Z 18007KT 8SM FEW020 SCT090 29/24 A2983 RMK 8/130 HZY CU N= 072242

MMBT 072155Z 18008KT 8SM SCT020 30/24 A2983 RMK 8/100 HZY= 072156

MMBT 072040Z 18008KT 8SM SCT020 32/24 A2983 RMK 8/100 HZY= 072042

MMBT 071946Z 18008KT 8SM SCT020 SCT200 31/23 A2983 RMK 8/106 HZY= 071947

MMBT 071840Z 18008KT 8SM SCT020 SCT200 32/23 A2985 RMK 8/106 HZY= 071841

MMBT 071740Z 18005KT 9SM SCT020 SCT200 32/23 A2989 RMK 8/106 HZY= 071741

MMBT 071640Z 18005KT 10SM FEW200 33/21 A2990 RMK 8/006 HZY= 071641

MMBT 071554Z 00000KT 10SM SKC 32/22 A2991 RMK HZY= 071555

MMBT 071456Z 00000KT 10SM SKC 29/22 A2992 RMK HZY= 071456

MMBT 071340Z 00000KT 10SM SKC 24/20 A2991= 071340

MMBT 071246Z 00000KT 15SM SKC 24/20 A2990 RMK HZY= 071246

MMBT 071204Z RTD 00000KT 15SM SCT200 24/20 A2990 RMK 8/006 RTS= 071206

MMBT 070140Z 00000KT 8SM FEW120 FEW220 27/23 A2990 RMK 8/031= 070140

MMBT 070045Z 00000KT 10SM FEW120 FEW220 28/23 A2987 RMK 8/031= 070046

MMBT 062341Z 00000KT 10SM FEW120 29/23 A2985 RMK 8/030= 062341

MMBT 062240Z 19008KT 10SM FEW120 31/21 A2988 RMK 8/030 DSNT CU N NW= 062241

MMBT 062141Z 18008KT 10SM SKC 32/21 A2983 RMK DSNY CU N NW= 062142

MMBT 062041Z 18008KT 10SM SKC 33/21 A2985 RMK DSNY CU N NW= 062042

MMBT 061944Z 18008KT 10SM SKC 33/20 A2987 RMK DSNT CU N NW= 061946

MMBT 061840Z 18009KT 10SM FEW020 FEW200 33/21 A2990 RMK 8/101 HZY= 061841

MMBT 061740Z 18010KT 10SM FEW200 33/21 A2993 RMK 8/001 HZY ST N= 061741

MMBT 061640Z 00000KT 10SM FEW200 33/18 A2995 RMK 8/001 HZY= 061640

MMBT 061614Z RTD 00000KT 10SM FEW200 32/18 A2996 RMK 8/001 HZY= 061615

MMBT 061445Z 00000KT 15SM SKC 29/18 A2997 RMK CI S= 061446

MMBT 061348Z 00000KT 15SM SKC 25/18 A2997 RMK CI S= 061349

MMBT 061308Z RTD 00000KT 15SM SKC 23/18 A2995 RMK CI S RTS= 061309